sensor_id;sensor_type;location;lat;lon;timestamp;P1;durP1;ratioP1;P2;durP2;ratioP2
59336;SDS011;45115;52.002;4.686;2023-06-22T00:00:45;22.75;;;14.32;;
59336;SDS011;45115;52.002;4.686;2023-06-22T00:03:12;20.85;;;12.88;;
59336;SDS011;45115;52.002;4.686;2023-06-22T00:05:39;22.38;;;12.52;;
59336;SDS011;45115;52.002;4.686;2023-06-22T00:08:05;22.40;;;13.00;;
59336;SDS011;45115;52.002;4.686;2023-06-22T00:10:32;20.48;;;12.43;;
59336;SDS011;45115;52.002;4.686;2023-06-22T00:12:59;19.17;;;11.70;;
59336;SDS011;45115;52.002;4.686;2023-06-22T00:15:27;20.20;;;10.80;;
59336;SDS011;45115;52.002;4.686;2023-06-22T00:17:54;21.38;;;11.70;;
59336;SDS011;45115;52.002;4.686;2023-06-22T00:20:22;18.95;;;11.50;;
59336;SDS011;45115;52.002;4.686;2023-06-22T00:22:53;18.77;;;10.57;;
59336;SDS011;45115;52.002;4.686;2023-06-22T00:25:19;20.33;;;12.13;;
59336;SDS011;45115;52.002;4.686;2023-06-22T00:27:47;20.40;;;11.85;;
59336;SDS011;45115;52.002;4.686;2023-06-22T00:30:14;19.98;;;11.52;;
59336;SDS011;45115;52.002;4.686;2023-06-22T00:32:43;20.83;;;12.10;;
59336;SDS011;45115;52.002;4.686;2023-06-22T00:35:12;22.27;;;13.48;;
59336;SDS011;45115;52.002;4.686;2023-06-22T00:37:39;23.70;;;13.57;;
59336;SDS011;45115;52.002;4.686;2023-06-22T00:40:07;24.30;;;14.00;;
59336;SDS011;45115;52.002;4.686;2023-06-22T00:42:36;24.42;;;13.82;;
59336;SDS011;45115;52.002;4.686;2023-06-22T00:45:04;22.77;;;13.65;;
59336;SDS011;45115;52.002;4.686;2023-06-22T00:47:31;26.95;;;14.95;;
59336;SDS011;45115;52.002;4.686;2023-06-22T00:50:01;22.55;;;13.60;;
59336;SDS011;45115;52.002;4.686;2023-06-22T00:52:30;25.67;;;14.65;;
59336;SDS011;45115;52.002;4.686;2023-06-22T00:55:00;25.98;;;14.38;;
59336;SDS011;45115;52.002;4.686;2023-06-22T00:57:28;25.20;;;14.25;;
59336;SDS011;45115;52.002;4.686;2023-06-22T00:59:55;25.17;;;15.20;;
59336;SDS011;45115;52.002;4.686;2023-06-22T01:02:22;24.15;;;13.95;;
59336;SDS011;45115;52.002;4.686;2023-06-22T01:04:50;23.58;;;13.75;;
59336;SDS011;45115;52.002;4.686;2023-06-22T01:07:20;22.75;;;13.35;;
59336;SDS011;45115;52.002;4.686;2023-06-22T01:09:58;24.88;;;14.30;;
59336;SDS011;45115;52.002;4.686;2023-06-22T01:12:30;22.85;;;13.95;;
59336;SDS011;45115;52.002;4.686;2023-06-22T01:15:07;25.85;;;14.40;;
59336;SDS011;45115;52.002;4.686;2023-06-22T01:17:36;26.73;;;15.77;;
59336;SDS011;45115;52.002;4.686;2023-06-22T01:20:09;25.38;;;14.15;;
59336;SDS011;45115;52.002;4.686;2023-06-22T01:22:43;27.63;;;15.70;;
59336;SDS011;45115;52.002;4.686;2023-06-22T01:25:25;26.77;;;16.27;;
59336;SDS011;45115;52.002;4.686;2023-06-22T01:28:01;30.80;;;17.13;;
59336;SDS011;45115;52.002;4.686;2023-06-22T01:30:42;29.58;;;17.25;;
59336;SDS011;45115;52.002;4.686;2023-06-22T01:33:11;30.13;;;16.30;;
59336;SDS011;45115;52.002;4.686;2023-06-22T01:35:40;29.60;;;16.23;;
59336;SDS011;45115;52.002;4.686;2023-06-22T01:38:08;27.30;;;15.80;;
59336;SDS011;45115;52.002;4.686;2023-06-22T01:40:35;27.98;;;15.50;;
59336;SDS011;45115;52.002;4.686;2023-06-22T01:43:03;27.85;;;16.58;;
59336;SDS011;45115;52.002;4.686;2023-06-22T01:45:34;28.75;;;17.30;;
59336;SDS011;45115;52.002;4.686;2023-06-22T01:48:03;31.73;;;18.55;;
59336;SDS011;45115;52.002;4.686;2023-06-22T01:50:30;29.63;;;17.42;;
59336;SDS011;45115;52.002;4.686;2023-06-22T01:52:57;33.85;;;19.23;;
59336;SDS011;45115;52.002;4.686;2023-06-22T01:55:25;31.60;;;19.98;;
59336;SDS011;45115;52.002;4.686;2023-06-22T01:57:52;36.83;;;20.17;;
59336;SDS011;45115;52.002;4.686;2023-06-22T02:00:19;32.42;;;19.30;;
59336;SDS011;45115;52.002;4.686;2023-06-22T02:02:53;28.85;;;17.73;;
59336;SDS011;45115;52.002;4.686;2023-06-22T02:05:28;40.35;;;22.15;;
59336;SDS011;45115;52.002;4.686;2023-06-22T02:08:00;35.47;;;21.25;;
59336;SDS011;45115;52.002;4.686;2023-06-22T02:10:33;37.55;;;22.08;;
59336;SDS011;45115;52.002;4.686;2023-06-22T02:13:02;32.13;;;19.98;;
59336;SDS011;45115;52.002;4.686;2023-06-22T02:15:32;33.20;;;18.90;;
59336;SDS011;45115;52.002;4.686;2023-06-22T02:17:59;34.38;;;20.50;;
59336;SDS011;45115;52.002;4.686;2023-06-22T02:20:28;37.88;;;22.33;;
59336;SDS011;45115;52.002;4.686;2023-06-22T02:22:55;37.60;;;23.33;;
59336;SDS011;45115;52.002;4.686;2023-06-22T02:25:22;37.42;;;22.13;;
59336;SDS011;45115;52.002;4.686;2023-06-22T02:27:49;38.22;;;23.27;;
59336;SDS011;45115;52.002;4.686;2023-06-22T02:30:16;42.65;;;24.75;;
59336;SDS011;45115;52.002;4.686;2023-06-22T02:32:43;38.88;;;22.30;;
59336;SDS011;45115;52.002;4.686;2023-06-22T02:35:10;43.30;;;24.70;;
59336;SDS011;45115;52.002;4.686;2023-06-22T02:37:38;43.05;;;24.25;;
59336;SDS011;45115;52.002;4.686;2023-06-22T02:40:07;39.83;;;22.50;;
59336;SDS011;45115;52.002;4.686;2023-06-22T02:42:35;40.45;;;23.95;;
59336;SDS011;45115;52.002;4.686;2023-06-22T02:45:02;35.90;;;22.90;;
59336;SDS011;45115;52.002;4.686;2023-06-22T02:47:29;40.13;;;23.23;;
59336;SDS011;45115;52.002;4.686;2023-06-22T02:49:57;37.58;;;23.02;;
59336;SDS011;45115;52.002;4.686;2023-06-22T02:52:24;41.45;;;23.83;;
59336;SDS011;45115;52.002;4.686;2023-06-22T02:54:52;40.15;;;25.48;;
59336;SDS011;45115;52.002;4.686;2023-06-22T02:57:19;36.45;;;23.58;;
59336;SDS011;45115;52.002;4.686;2023-06-22T02:59:46;37.50;;;22.40;;
59336;SDS011;45115;52.002;4.686;2023-06-22T03:02:13;37.00;;;21.40;;
59336;SDS011;45115;52.002;4.686;2023-06-22T03:04:40;39.25;;;23.13;;
59336;SDS011;45115;52.002;4.686;2023-06-22T03:07:08;36.70;;;21.40;;
59336;SDS011;45115;52.002;4.686;2023-06-22T03:09:35;39.50;;;22.55;;
59336;SDS011;45115;52.002;4.686;2023-06-22T03:12:03;40.60;;;23.08;;
59336;SDS011;45115;52.002;4.686;2023-06-22T03:14:39;42.58;;;24.52;;
59336;SDS011;45115;52.002;4.686;2023-06-22T03:17:06;41.45;;;25.15;;
59336;SDS011;45115;52.002;4.686;2023-06-22T03:19:33;47.50;;;25.95;;
59336;SDS011;45115;52.002;4.686;2023-06-22T03:22:00;41.75;;;24.60;;
59336;SDS011;45115;52.002;4.686;2023-06-22T03:24:27;38.83;;;24.95;;
59336;SDS011;45115;52.002;4.686;2023-06-22T03:26:55;44.55;;;26.52;;
59336;SDS011;45115;52.002;4.686;2023-06-22T03:29:23;43.55;;;25.38;;
59336;SDS011;45115;52.002;4.686;2023-06-22T03:31:51;45.65;;;25.73;;
59336;SDS011;45115;52.002;4.686;2023-06-22T03:34:18;45.45;;;24.88;;
59336;SDS011;45115;52.002;4.686;2023-06-22T03:36:45;39.38;;;24.13;;
59336;SDS011;45115;52.002;4.686;2023-06-22T03:39:11;38.05;;;24.17;;
59336;SDS011;45115;52.002;4.686;2023-06-22T03:41:39;41.65;;;26.17;;
59336;SDS011;45115;52.002;4.686;2023-06-22T03:44:06;40.83;;;24.25;;
59336;SDS011;45115;52.002;4.686;2023-06-22T03:46:37;41.78;;;23.98;;
59336;SDS011;45115;52.002;4.686;2023-06-22T03:49:04;43.03;;;23.63;;
59336;SDS011;45115;52.002;4.686;2023-06-22T03:51:30;38.75;;;25.75;;
59336;SDS011;45115;52.002;4.686;2023-06-22T03:53:58;38.50;;;23.05;;
59336;SDS011;45115;52.002;4.686;2023-06-22T03:56:25;38.22;;;23.10;;
59336;SDS011;45115;52.002;4.686;2023-06-22T03:58:51;39.13;;;23.00;;
59336;SDS011;45115;52.002;4.686;2023-06-22T04:01:18;41.33;;;24.35;;
59336;SDS011;45115;52.002;4.686;2023-06-22T04:03:47;39.15;;;23.98;;
59336;SDS011;45115;52.002;4.686;2023-06-22T04:06:14;39.33;;;22.60;;
59336;SDS011;45115;52.002;4.686;2023-06-22T04:08:41;38.97;;;22.70;;
59336;SDS011;45115;52.002;4.686;2023-06-22T04:11:08;37.35;;;23.38;;
59336;SDS011;45115;52.002;4.686;2023-06-22T04:13:35;37.60;;;23.88;;
59336;SDS011;45115;52.002;4.686;2023-06-22T04:16:03;38.05;;;24.60;;
59336;SDS011;45115;52.002;4.686;2023-06-22T04:18:30;40.80;;;24.27;;
59336;SDS011;45115;52.002;4.686;2023-06-22T04:20:58;37.78;;;23.02;;
59336;SDS011;45115;52.002;4.686;2023-06-22T04:23:25;38.50;;;23.35;;
59336;SDS011;45115;52.002;4.686;2023-06-22T04:25:52;39.80;;;23.40;;
59336;SDS011;45115;52.002;4.686;2023-06-22T04:28:18;38.15;;;23.65;;
59336;SDS011;45115;52.002;4.686;2023-06-22T04:30:45;36.95;;;22.85;;
59336;SDS011;45115;52.002;4.686;2023-06-22T04:33:12;35.38;;;21.73;;
59336;SDS011;45115;52.002;4.686;2023-06-22T04:35:39;32.65;;;20.73;;
59336;SDS011;45115;52.002;4.686;2023-06-22T04:38:09;29.50;;;18.42;;
59336;SDS011;45115;52.002;4.686;2023-06-22T04:43:05;27.85;;;16.40;;
59336;SDS011;45115;52.002;4.686;2023-06-22T04:45:31;26.10;;;16.27;;
59336;SDS011;45115;52.002;4.686;2023-06-22T04:48:03;24.90;;;16.15;;
59336;SDS011;45115;52.002;4.686;2023-06-22T04:50:30;21.60;;;14.32;;
59336;SDS011;45115;52.002;4.686;2023-06-22T04:52:57;23.63;;;16.10;;
59336;SDS011;45115;52.002;4.686;2023-06-22T04:55:25;22.70;;;14.90;;
59336;SDS011;45115;52.002;4.686;2023-06-22T04:57:52;23.73;;;15.32;;
59336;SDS011;45115;52.002;4.686;2023-06-22T05:00:19;24.20;;;16.23;;
59336;SDS011;45115;52.002;4.686;2023-06-22T05:02:48;22.10;;;14.73;;
59336;SDS011;45115;52.002;4.686;2023-06-22T05:05:15;24.17;;;14.68;;
59336;SDS011;45115;52.002;4.686;2023-06-22T05:07:43;23.50;;;15.32;;
59336;SDS011;45115;52.002;4.686;2023-06-22T05:10:10;21.63;;;14.68;;
59336;SDS011;45115;52.002;4.686;2023-06-22T05:12:39;19.13;;;12.73;;
59336;SDS011;45115;52.002;4.686;2023-06-22T05:15:07;20.02;;;12.73;;
59336;SDS011;45115;52.002;4.686;2023-06-22T05:17:34;21.63;;;12.18;;
59336;SDS011;45115;52.002;4.686;2023-06-22T05:20:05;17.70;;;11.18;;
59336;SDS011;45115;52.002;4.686;2023-06-22T05:22:37;16.58;;;11.25;;
59336;SDS011;45115;52.002;4.686;2023-06-22T05:25:04;17.80;;;11.27;;
59336;SDS011;45115;52.002;4.686;2023-06-22T05:27:32;17.15;;;11.25;;
59336;SDS011;45115;52.002;4.686;2023-06-22T05:30:00;17.67;;;11.20;;
59336;SDS011;45115;52.002;4.686;2023-06-22T05:32:27;18.67;;;10.70;;
59336;SDS011;45115;52.002;4.686;2023-06-22T05:34:53;14.80;;;9.60;;
59336;SDS011;45115;52.002;4.686;2023-06-22T05:37:21;19.15;;;11.45;;
59336;SDS011;45115;52.002;4.686;2023-06-22T05:39:48;17.35;;;11.07;;
59336;SDS011;45115;52.002;4.686;2023-06-22T05:42:16;17.75;;;11.88;;
59336;SDS011;45115;52.002;4.686;2023-06-22T05:44:43;15.35;;;10.57;;
59336;SDS011;45115;52.002;4.686;2023-06-22T05:47:12;17.77;;;11.27;;
59336;SDS011;45115;52.002;4.686;2023-06-22T05:49:39;17.45;;;11.23;;
59336;SDS011;45115;52.002;4.686;2023-06-22T05:52:09;14.85;;;9.60;;
59336;SDS011;45115;52.002;4.686;2023-06-22T05:57:09;18.15;;;10.75;;
59336;SDS011;45115;52.002;4.686;2023-06-22T05:59:56;15.70;;;9.98;;
59336;SDS011;45115;52.002;4.686;2023-06-22T06:05:14;16.38;;;9.70;;
59336;SDS011;45115;52.002;4.686;2023-06-22T06:07:41;18.00;;;10.75;;
59336;SDS011;45115;52.002;4.686;2023-06-22T06:10:08;17.23;;;11.00;;
59336;SDS011;45115;52.002;4.686;2023-06-22T06:12:35;17.35;;;11.32;;
59336;SDS011;45115;52.002;4.686;2023-06-22T06:15:03;18.35;;;10.50;;
59336;SDS011;45115;52.002;4.686;2023-06-22T06:17:30;15.45;;;9.52;;
59336;SDS011;45115;52.002;4.686;2023-06-22T06:19:59;16.38;;;10.77;;
59336;SDS011;45115;52.002;4.686;2023-06-22T06:22:28;17.75;;;11.40;;
59336;SDS011;45115;52.002;4.686;2023-06-22T06:24:55;17.98;;;10.05;;
59336;SDS011;45115;52.002;4.686;2023-06-22T06:27:22;18.45;;;11.52;;
59336;SDS011;45115;52.002;4.686;2023-06-22T06:29:54;19.30;;;11.68;;
59336;SDS011;45115;52.002;4.686;2023-06-22T06:32:21;18.10;;;11.63;;
59336;SDS011;45115;52.002;4.686;2023-06-22T06:34:47;19.63;;;12.23;;
59336;SDS011;45115;52.002;4.686;2023-06-22T06:37:16;19.05;;;11.25;;
59336;SDS011;45115;52.002;4.686;2023-06-22T06:39:43;17.13;;;10.68;;
59336;SDS011;45115;52.002;4.686;2023-06-22T06:42:10;18.27;;;10.93;;
59336;SDS011;45115;52.002;4.686;2023-06-22T06:44:37;17.65;;;10.88;;
59336;SDS011;45115;52.002;4.686;2023-06-22T06:47:07;16.23;;;10.30;;
59336;SDS011;45115;52.002;4.686;2023-06-22T06:49:33;16.38;;;10.50;;
59336;SDS011;45115;52.002;4.686;2023-06-22T06:52:00;16.70;;;10.88;;
59336;SDS011;45115;52.002;4.686;2023-06-22T06:54:28;18.10;;;10.18;;
59336;SDS011;45115;52.002;4.686;2023-06-22T06:56:55;16.73;;;10.10;;
59336;SDS011;45115;52.002;4.686;2023-06-22T06:59:21;16.15;;;10.90;;
59336;SDS011;45115;52.002;4.686;2023-06-22T07:01:48;16.02;;;8.88;;
59336;SDS011;45115;52.002;4.686;2023-06-22T07:04:15;16.73;;;9.50;;
59336;SDS011;45115;52.002;4.686;2023-06-22T07:06:42;16.70;;;10.30;;
59336;SDS011;45115;52.002;4.686;2023-06-22T07:09:08;14.75;;;9.88;;
59336;SDS011;45115;52.002;4.686;2023-06-22T07:11:37;14.98;;;8.90;;
59336;SDS011;45115;52.002;4.686;2023-06-22T07:14:03;17.40;;;8.15;;
59336;SDS011;45115;52.002;4.686;2023-06-22T07:16:33;14.02;;;8.18;;
59336;SDS011;45115;52.002;4.686;2023-06-22T07:18:59;13.73;;;7.53;;
59336;SDS011;45115;52.002;4.686;2023-06-22T07:21:26;13.30;;;7.30;;
59336;SDS011;45115;52.002;4.686;2023-06-22T07:23:53;9.40;;;6.25;;
59336;SDS011;45115;52.002;4.686;2023-06-22T07:26:20;12.35;;;6.93;;
59336;SDS011;45115;52.002;4.686;2023-06-22T07:28:48;9.73;;;5.78;;
59336;SDS011;45115;52.002;4.686;2023-06-22T07:31:16;10.05;;;5.90;;
59336;SDS011;45115;52.002;4.686;2023-06-22T07:33:42;11.13;;;6.13;;
59336;SDS011;45115;52.002;4.686;2023-06-22T07:36:09;7.35;;;4.75;;
59336;SDS011;45115;52.002;4.686;2023-06-22T07:38:36;11.52;;;6.35;;
59336;SDS011;45115;52.002;4.686;2023-06-22T07:41:02;10.93;;;6.43;;
59336;SDS011;45115;52.002;4.686;2023-06-22T07:43:30;10.35;;;6.97;;
59336;SDS011;45115;52.002;4.686;2023-06-22T07:45:59;11.85;;;7.88;;
59336;SDS011;45115;52.002;4.686;2023-06-22T07:48:26;11.18;;;7.07;;
59336;SDS011;45115;52.002;4.686;2023-06-22T07:50:53;10.10;;;6.70;;
59336;SDS011;45115;52.002;4.686;2023-06-22T07:53:20;12.18;;;7.90;;
59336;SDS011;45115;52.002;4.686;2023-06-22T07:55:46;14.20;;;8.25;;
59336;SDS011;45115;52.002;4.686;2023-06-22T07:58:13;14.23;;;8.40;;
59336;SDS011;45115;52.002;4.686;2023-06-22T08:00:41;13.63;;;8.25;;
59336;SDS011;45115;52.002;4.686;2023-06-22T08:03:09;17.60;;;9.73;;
59336;SDS011;45115;52.002;4.686;2023-06-22T08:05:36;18.60;;;11.93;;
59336;SDS011;45115;52.002;4.686;2023-06-22T08:08:02;15.32;;;11.05;;
59336;SDS011;45115;52.002;4.686;2023-06-22T08:10:29;18.00;;;11.55;;
59336;SDS011;45115;52.002;4.686;2023-06-22T08:12:56;16.17;;;11.00;;
59336;SDS011;45115;52.002;4.686;2023-06-22T08:15:23;17.92;;;12.30;;
59336;SDS011;45115;52.002;4.686;2023-06-22T08:17:50;18.40;;;11.80;;
59336;SDS011;45115;52.002;4.686;2023-06-22T08:20:19;21.63;;;14.35;;
59336;SDS011;45115;52.002;4.686;2023-06-22T08:22:45;22.27;;;14.95;;
59336;SDS011;45115;52.002;4.686;2023-06-22T08:25:12;21.48;;;16.15;;
59336;SDS011;45115;52.002;4.686;2023-06-22T08:27:39;23.40;;;15.10;;
59336;SDS011;45115;52.002;4.686;2023-06-22T08:30:06;21.30;;;15.65;;
59336;SDS011;45115;52.002;4.686;2023-06-22T08:32:36;21.35;;;15.57;;
59336;SDS011;45115;52.002;4.686;2023-06-22T08:35:03;23.35;;;17.83;;
59336;SDS011;45115;52.002;4.686;2023-06-22T08:37:33;22.88;;;18.13;;
59336;SDS011;45115;52.002;4.686;2023-06-22T08:40:01;20.75;;;15.98;;
59336;SDS011;45115;52.002;4.686;2023-06-22T08:42:30;20.42;;;16.58;;
59336;SDS011;45115;52.002;4.686;2023-06-22T08:44:57;21.15;;;16.48;;
59336;SDS011;45115;52.002;4.686;2023-06-22T08:47:23;20.80;;;16.10;;
59336;SDS011;45115;52.002;4.686;2023-06-22T08:49:50;23.42;;;17.50;;
59336;SDS011;45115;52.002;4.686;2023-06-22T08:52:17;20.70;;;16.23;;
59336;SDS011;45115;52.002;4.686;2023-06-22T08:54:46;23.40;;;17.63;;
59336;SDS011;45115;52.002;4.686;2023-06-22T08:57:13;24.52;;;17.13;;
59336;SDS011;45115;52.002;4.686;2023-06-22T08:59:39;19.02;;;15.00;;
59336;SDS011;45115;52.002;4.686;2023-06-22T09:02:06;20.88;;;16.23;;
59336;SDS011;45115;52.002;4.686;2023-06-22T09:04:33;20.95;;;17.17;;
59336;SDS011;45115;52.002;4.686;2023-06-22T09:07:00;20.77;;;15.35;;
59336;SDS011;45115;52.002;4.686;2023-06-22T09:09:27;21.40;;;15.02;;
59336;SDS011;45115;52.002;4.686;2023-06-22T09:11:55;22.30;;;15.73;;
59336;SDS011;45115;52.002;4.686;2023-06-22T09:14:21;20.80;;;14.70;;
59336;SDS011;45115;52.002;4.686;2023-06-22T09:16:48;20.40;;;14.40;;
59336;SDS011;45115;52.002;4.686;2023-06-22T09:19:15;19.85;;;14.85;;
59336;SDS011;45115;52.002;4.686;2023-06-22T09:21:43;20.65;;;14.60;;
59336;SDS011;45115;52.002;4.686;2023-06-22T09:24:10;17.92;;;14.00;;
59336;SDS011;45115;52.002;4.686;2023-06-22T09:26:36;18.40;;;13.50;;
59336;SDS011;45115;52.002;4.686;2023-06-22T09:29:05;17.95;;;13.27;;
59336;SDS011;45115;52.002;4.686;2023-06-22T09:31:32;18.60;;;12.52;;
59336;SDS011;45115;52.002;4.686;2023-06-22T09:33:59;16.58;;;12.18;;
59336;SDS011;45115;52.002;4.686;2023-06-22T09:36:25;19.85;;;13.10;;
59336;SDS011;45115;52.002;4.686;2023-06-22T09:38:52;16.23;;;10.88;;
59336;SDS011;45115;52.002;4.686;2023-06-22T09:41:23;16.88;;;10.98;;
59336;SDS011;45115;52.002;4.686;2023-06-22T09:43:50;18.02;;;11.18;;
59336;SDS011;45115;52.002;4.686;2023-06-22T09:46:18;15.23;;;10.15;;
59336;SDS011;45115;52.002;4.686;2023-06-22T09:48:46;18.10;;;11.07;;
59336;SDS011;45115;52.002;4.686;2023-06-22T09:51:13;18.80;;;12.48;;
59336;SDS011;45115;52.002;4.686;2023-06-22T09:53:40;16.85;;;11.23;;
59336;SDS011;45115;52.002;4.686;2023-06-22T09:56:07;16.05;;;11.32;;
59336;SDS011;45115;52.002;4.686;2023-06-22T09:58:39;16.20;;;11.68;;
59336;SDS011;45115;52.002;4.686;2023-06-22T10:01:06;17.95;;;12.50;;
59336;SDS011;45115;52.002;4.686;2023-06-22T10:03:34;16.98;;;11.55;;
59336;SDS011;45115;52.002;4.686;2023-06-22T10:06:01;17.10;;;12.98;;
59336;SDS011;45115;52.002;4.686;2023-06-22T10:08:28;20.00;;;13.40;;
59336;SDS011;45115;52.002;4.686;2023-06-22T10:10:55;18.98;;;14.02;;
59336;SDS011;45115;52.002;4.686;2023-06-22T10:13:21;19.85;;;12.93;;
59336;SDS011;45115;52.002;4.686;2023-06-22T10:15:48;20.58;;;13.68;;
59336;SDS011;45115;52.002;4.686;2023-06-22T10:18:17;20.83;;;13.35;;
59336;SDS011;45115;52.002;4.686;2023-06-22T10:20:47;16.55;;;12.90;;
59336;SDS011;45115;52.002;4.686;2023-06-22T10:23:15;16.90;;;12.48;;
59336;SDS011;45115;52.002;4.686;2023-06-22T10:25:42;16.73;;;11.25;;
59336;SDS011;45115;52.002;4.686;2023-06-22T10:28:08;17.55;;;12.07;;
59336;SDS011;45115;52.002;4.686;2023-06-22T10:30:35;18.35;;;13.98;;
59336;SDS011;45115;52.002;4.686;2023-06-22T10:33:02;17.85;;;12.32;;
59336;SDS011;45115;52.002;4.686;2023-06-22T10:35:29;18.75;;;11.80;;
59336;SDS011;45115;52.002;4.686;2023-06-22T10:37:57;16.77;;;11.43;;
59336;SDS011;45115;52.002;4.686;2023-06-22T10:40:23;17.55;;;12.48;;
59336;SDS011;45115;52.002;4.686;2023-06-22T10:42:50;20.45;;;14.63;;
59336;SDS011;45115;52.002;4.686;2023-06-22T10:45:17;22.40;;;15.32;;
59336;SDS011;45115;52.002;4.686;2023-06-22T10:47:44;22.73;;;17.15;;
59336;SDS011;45115;52.002;4.686;2023-06-22T10:50:11;23.67;;;16.08;;
59336;SDS011;45115;52.002;4.686;2023-06-22T10:52:38;23.67;;;16.25;;
59336;SDS011;45115;52.002;4.686;2023-06-22T10:55:06;21.60;;;16.40;;
59336;SDS011;45115;52.002;4.686;2023-06-22T10:57:33;18.90;;;15.18;;
59336;SDS011;45115;52.002;4.686;2023-06-22T11:00:01;22.05;;;16.63;;
59336;SDS011;45115;52.002;4.686;2023-06-22T11:02:30;21.60;;;17.75;;
59336;SDS011;45115;52.002;4.686;2023-06-22T11:04:57;23.45;;;18.33;;
59336;SDS011;45115;52.002;4.686;2023-06-22T11:07:25;22.23;;;18.00;;
59336;SDS011;45115;52.002;4.686;2023-06-22T11:09:52;23.95;;;18.15;;
59336;SDS011;45115;52.002;4.686;2023-06-22T11:12:20;22.95;;;17.35;;
59336;SDS011;45115;52.002;4.686;2023-06-22T11:14:47;26.75;;;19.45;;
59336;SDS011;45115;52.002;4.686;2023-06-22T11:17:15;24.20;;;17.30;;
59336;SDS011;45115;52.002;4.686;2023-06-22T11:19:42;24.67;;;17.42;;
59336;SDS011;45115;52.002;4.686;2023-06-22T11:22:08;22.27;;;15.57;;
59336;SDS011;45115;52.002;4.686;2023-06-22T11:24:35;25.98;;;16.55;;
59336;SDS011;45115;52.002;4.686;2023-06-22T11:27:02;19.10;;;14.82;;
59336;SDS011;45115;52.002;4.686;2023-06-22T11:29:30;21.10;;;14.95;;
59336;SDS011;45115;52.002;4.686;2023-06-22T11:31:57;20.48;;;14.60;;
59336;SDS011;45115;52.002;4.686;2023-06-22T11:34:23;21.42;;;13.32;;
59336;SDS011;45115;52.002;4.686;2023-06-22T11:36:51;21.98;;;13.77;;
59336;SDS011;45115;52.002;4.686;2023-06-22T11:39:17;21.23;;;14.00;;
59336;SDS011;45115;52.002;4.686;2023-06-22T11:41:45;21.67;;;15.35;;
59336;SDS011;45115;52.002;4.686;2023-06-22T11:44:11;21.50;;;15.00;;
59336;SDS011;45115;52.002;4.686;2023-06-22T11:46:39;23.95;;;17.88;;
59336;SDS011;45115;52.002;4.686;2023-06-22T11:49:06;26.75;;;19.13;;
59336;SDS011;45115;52.002;4.686;2023-06-22T11:51:33;25.98;;;17.80;;
59336;SDS011;45115;52.002;4.686;2023-06-22T11:53:59;27.67;;;20.10;;
59336;SDS011;45115;52.002;4.686;2023-06-22T11:56:27;27.27;;;19.90;;
59336;SDS011;45115;52.002;4.686;2023-06-22T11:58:54;26.33;;;19.77;;
59336;SDS011;45115;52.002;4.686;2023-06-22T12:01:20;25.52;;;18.23;;
59336;SDS011;45115;52.002;4.686;2023-06-22T12:03:48;25.13;;;18.38;;
59336;SDS011;45115;52.002;4.686;2023-06-22T12:06:16;24.10;;;17.85;;
59336;SDS011;45115;52.002;4.686;2023-06-22T12:08:42;27.67;;;17.75;;
59336;SDS011;45115;52.002;4.686;2023-06-22T12:11:09;33.33;;;21.10;;
59336;SDS011;45115;52.002;4.686;2023-06-22T12:13:36;28.55;;;21.13;;
59336;SDS011;45115;52.002;4.686;2023-06-22T12:16:03;30.20;;;20.65;;
59336;SDS011;45115;52.002;4.686;2023-06-22T12:18:30;32.15;;;23.08;;
59336;SDS011;45115;52.002;4.686;2023-06-22T12:20:58;31.00;;;22.80;;
59336;SDS011;45115;52.002;4.686;2023-06-22T12:23:25;33.30;;;23.55;;
59336;SDS011;45115;52.002;4.686;2023-06-22T12:25:51;32.47;;;23.90;;
59336;SDS011;45115;52.002;4.686;2023-06-22T12:28:18;35.22;;;23.98;;
59336;SDS011;45115;52.002;4.686;2023-06-22T12:30:45;33.65;;;22.85;;
59336;SDS011;45115;52.002;4.686;2023-06-22T12:33:11;32.03;;;24.30;;
59336;SDS011;45115;52.002;4.686;2023-06-22T12:35:38;30.85;;;23.40;;
59336;SDS011;45115;52.002;4.686;2023-06-22T12:38:06;31.27;;;23.63;;
59336;SDS011;45115;52.002;4.686;2023-06-22T12:40:34;28.83;;;22.05;;
59336;SDS011;45115;52.002;4.686;2023-06-22T12:43:01;33.53;;;23.70;;
59336;SDS011;45115;52.002;4.686;2023-06-22T12:45:27;32.45;;;23.33;;
59336;SDS011;45115;52.002;4.686;2023-06-22T12:50:25;30.70;;;21.75;;
59336;SDS011;45115;52.002;4.686;2023-06-22T12:52:51;29.60;;;23.10;;
59336;SDS011;45115;52.002;4.686;2023-06-22T12:55:20;29.60;;;22.40;;
59336;SDS011;45115;52.002;4.686;2023-06-22T12:57:46;29.50;;;22.55;;
59336;SDS011;45115;52.002;4.686;2023-06-22T13:00:14;29.60;;;22.65;;
59336;SDS011;45115;52.002;4.686;2023-06-22T13:02:41;30.65;;;23.92;;
59336;SDS011;45115;52.002;4.686;2023-06-22T13:05:08;29.80;;;22.08;;
59336;SDS011;45115;52.002;4.686;2023-06-22T13:07:35;32.28;;;23.42;;
59336;SDS011;45115;52.002;4.686;2023-06-22T13:10:02;30.42;;;22.08;;
59336;SDS011;45115;52.002;4.686;2023-06-22T13:12:31;30.83;;;22.15;;
59336;SDS011;45115;52.002;4.686;2023-06-22T13:14:57;28.67;;;22.15;;
59336;SDS011;45115;52.002;4.686;2023-06-22T13:17:24;30.60;;;21.63;;
59336;SDS011;45115;52.002;4.686;2023-06-22T13:19:51;30.20;;;19.80;;
59336;SDS011;45115;52.002;4.686;2023-06-22T13:22:28;29.48;;;20.88;;
59336;SDS011;45115;52.002;4.686;2023-06-22T13:24:56;27.00;;;20.58;;
59336;SDS011;45115;52.002;4.686;2023-06-22T13:27:23;28.20;;;21.58;;
59336;SDS011;45115;52.002;4.686;2023-06-22T13:29:52;31.02;;;22.83;;
59336;SDS011;45115;52.002;4.686;2023-06-22T13:32:19;27.95;;;22.90;;
59336;SDS011;45115;52.002;4.686;2023-06-22T13:34:46;29.02;;;22.55;;
59336;SDS011;45115;52.002;4.686;2023-06-22T13:37:12;31.00;;;22.85;;
59336;SDS011;45115;52.002;4.686;2023-06-22T13:39:39;28.45;;;23.92;;
59336;SDS011;45115;52.002;4.686;2023-06-22T13:42:06;28.58;;;22.65;;
59336;SDS011;45115;52.002;4.686;2023-06-22T13:44:33;33.30;;;25.13;;
59336;SDS011;45115;52.002;4.686;2023-06-22T13:47:02;32.67;;;25.08;;
59336;SDS011;45115;52.002;4.686;2023-06-22T13:49:29;35.10;;;26.15;;
59336;SDS011;45115;52.002;4.686;2023-06-22T13:51:56;36.38;;;27.08;;
59336;SDS011;45115;52.002;4.686;2023-06-22T13:54:23;37.72;;;26.58;;
59336;SDS011;45115;52.002;4.686;2023-06-22T13:56:50;41.65;;;27.52;;
59336;SDS011;45115;52.002;4.686;2023-06-22T13:59:17;37.53;;;27.75;;
59336;SDS011;45115;52.002;4.686;2023-06-22T14:01:45;38.85;;;29.00;;
59336;SDS011;45115;52.002;4.686;2023-06-22T14:04:13;38.75;;;28.45;;
59336;SDS011;45115;52.002;4.686;2023-06-22T14:06:40;39.22;;;29.23;;
59336;SDS011;45115;52.002;4.686;2023-06-22T14:09:18;38.80;;;24.75;;
59336;SDS011;45115;52.002;4.686;2023-06-22T14:11:44;36.22;;;25.80;;
59336;SDS011;45115;52.002;4.686;2023-06-22T14:14:11;36.13;;;25.42;;
59336;SDS011;45115;52.002;4.686;2023-06-22T14:16:38;30.92;;;22.52;;
59336;SDS011;45115;52.002;4.686;2023-06-22T14:19:05;29.38;;;21.80;;
59336;SDS011;45115;52.002;4.686;2023-06-22T14:21:33;28.50;;;21.25;;
59336;SDS011;45115;52.002;4.686;2023-06-22T14:23:59;26.20;;;18.95;;
59336;SDS011;45115;52.002;4.686;2023-06-22T14:26:26;28.75;;;19.92;;
59336;SDS011;45115;52.002;4.686;2023-06-22T14:28:53;24.13;;;16.75;;
59336;SDS011;45115;52.002;4.686;2023-06-22T14:31:19;22.95;;;16.05;;
59336;SDS011;45115;52.002;4.686;2023-06-22T14:33:47;22.45;;;15.13;;
59336;SDS011;45115;52.002;4.686;2023-06-22T14:36:15;20.40;;;14.45;;